createdAt,value
2022-10-13T00:00:56.551Z,13.80
2022-10-13T00:01:56.525Z,14.50
2022-10-13T00:02:56.497Z,13.00
2022-10-13T00:03:56.488Z,13.70
2022-10-13T00:04:56.468Z,14.40
2022-10-13T00:05:56.461Z,13.80
2022-10-13T00:06:56.465Z,14.60
2022-10-13T00:07:56.440Z,14.40
2022-10-13T00:08:56.433Z,13.80
2022-10-13T00:09:56.419Z,14.90
2022-10-13T00:10:56.408Z,14.20
2022-10-13T00:11:56.420Z,13.50
2022-10-13T00:12:56.380Z,13.50
2022-10-13T00:13:56.381Z,14.30
2022-10-13T00:14:56.382Z,14.50
2022-10-13T00:15:56.360Z,13.70
2022-10-13T00:16:56.362Z,13.90
2022-10-13T00:17:56.347Z,20.60
2022-10-13T00:18:56.332Z,18.80
2022-10-13T00:19:56.320Z,18.20
2022-10-13T00:20:56.304Z,17.10
2022-10-13T00:21:56.314Z,13.90
2022-10-13T00:22:56.284Z,14.70
2022-10-13T00:23:56.272Z,14.10
2022-10-13T00:24:56.264Z,14.20
2022-10-13T00:25:56.253Z,13.00
2022-10-13T00:26:56.263Z,13.60
2022-10-13T00:27:56.233Z,13.30
2022-10-13T00:28:56.268Z,13.30
2022-10-13T00:29:56.214Z,14.40
2022-10-13T00:30:56.196Z,13.90
2022-10-13T00:31:56.205Z,15.20
2022-10-13T00:32:56.176Z,15.90
2022-10-13T00:33:56.168Z,14.60
2022-10-13T00:34:56.147Z,14.40
2022-10-13T00:35:56.165Z,15.30
2022-10-13T00:36:56.146Z,15.00
2022-10-13T00:37:56.128Z,15.60
2022-10-13T00:38:56.108Z,14.70
2022-10-13T00:39:56.108Z,15.10
2022-10-13T00:40:56.106Z,14.60
2022-10-13T00:41:56.098Z,15.10
2022-10-13T00:42:56.075Z,14.50
2022-10-13T00:43:56.070Z,15.30
2022-10-13T00:44:56.053Z,15.60
2022-10-13T00:45:56.048Z,14.90
2022-10-13T00:46:56.072Z,15.30
2022-10-13T00:47:56.020Z,15.70
2022-10-13T00:48:56.009Z,14.80
2022-10-13T00:49:56.001Z,15.10
2022-10-13T00:50:55.982Z,15.60
2022-10-13T00:51:56.000Z,15.20
2022-10-13T00:52:55.963Z,15.60
2022-10-13T00:53:55.972Z,15.00
2022-10-13T00:54:55.953Z,15.20
2022-10-13T00:55:55.933Z,15.80
2022-10-13T00:56:55.941Z,16.40
2022-10-13T00:57:55.918Z,15.50
2022-10-13T00:58:55.904Z,14.40
2022-10-13T00:59:55.894Z,15.30
2022-10-13T01:00:55.962Z,14.20
2022-10-13T01:01:55.893Z,14.50
2022-10-13T01:02:55.864Z,13.80
2022-10-13T01:03:55.855Z,14.10
2022-10-13T01:04:55.836Z,14.70
2022-10-13T01:05:55.833Z,14.30
2022-10-13T01:06:55.837Z,14.10
2022-10-13T01:07:55.813Z,14.60
2022-10-13T01:08:55.795Z,14.30
2022-10-13T01:09:55.795Z,13.90
2022-10-13T01:10:55.796Z,13.60
2022-10-13T01:11:55.786Z,13.90
2022-10-13T01:12:55.759Z,14.30
2022-10-13T01:13:55.751Z,14.90
2022-10-13T01:14:55.736Z,14.70
2022-10-13T01:15:55.728Z,14.50
2022-10-13T01:16:55.730Z,15.10
2022-10-13T01:17:55.730Z,14.70
2022-10-13T01:18:55.701Z,14.30
2022-10-13T01:19:55.681Z,14.80
2022-10-13T01:20:55.670Z,13.90
2022-10-13T01:21:55.703Z,13.90
2022-10-13T01:22:55.649Z,14.90
2022-10-13T01:23:55.649Z,15.00
2022-10-13T01:24:55.632Z,14.40
2022-10-13T01:25:55.622Z,14.80
2022-10-13T01:26:55.633Z,14.30
2022-10-13T01:27:55.613Z,15.20
2022-10-13T01:28:55.592Z,14.30
2022-10-13T01:29:55.584Z,14.40
2022-10-13T01:30:55.563Z,14.70
2022-10-13T01:31:55.580Z,16.10
2022-10-13T01:32:55.544Z,15.40
2022-10-13T01:33:55.545Z,14.40
2022-10-13T01:34:55.529Z,14.90
2022-10-13T01:35:55.533Z,15.00
2022-10-13T01:36:55.526Z,16.60
2022-10-13T01:37:55.497Z,15.20
2022-10-13T01:38:55.483Z,15.40
2022-10-13T01:39:55.476Z,16.40
2022-10-13T01:40:55.463Z,15.40
2022-10-13T01:41:55.474Z,15.90
2022-10-13T01:42:55.436Z,18.70
2022-10-13T01:43:55.437Z,18.90
2022-10-13T01:44:55.417Z,20.10
2022-10-13T01:45:55.416Z,19.30
2022-10-13T01:46:55.419Z,17.30
2022-10-13T01:47:55.395Z,16.80
2022-10-13T01:48:55.391Z,17.90
2022-10-13T01:49:55.368Z,19.40
2022-10-13T01:50:55.372Z,18.00
2022-10-13T01:51:55.374Z,18.60
2022-10-13T01:52:55.330Z,17.30
2022-10-13T01:53:55.341Z,17.60
2022-10-13T01:54:55.328Z,17.80
2022-10-13T01:55:55.300Z,17.40
2022-10-13T01:56:55.322Z,17.30
2022-10-13T01:57:55.280Z,16.70
2022-10-13T01:58:55.280Z,18.10
2022-10-13T01:59:55.261Z,17.80
2022-10-13T02:00:55.297Z,17.90
2022-10-13T02:01:55.261Z,18.30
2022-10-13T02:02:55.240Z,18.20
2022-10-13T02:03:55.220Z,18.40
2022-10-13T02:04:55.213Z,19.40
2022-10-13T02:05:55.194Z,18.80
2022-10-13T02:06:55.258Z,19.00
2022-10-13T02:07:55.174Z,17.70
2022-10-13T02:08:55.173Z,20.00
2022-10-13T02:09:55.164Z,20.10
2022-10-13T02:10:55.151Z,41.00
2022-10-13T02:11:55.152Z,24.90
2022-10-13T02:12:55.125Z,25.00
2022-10-13T02:13:55.115Z,23.00
2022-10-13T02:14:55.106Z,19.10
2022-10-13T02:15:55.096Z,20.00
2022-10-13T02:16:55.105Z,19.70
2022-10-13T02:17:55.074Z,21.00
2022-10-13T02:18:55.065Z,20.80
2022-10-13T02:19:55.048Z,22.60
2022-10-13T02:20:55.045Z,24.60
2022-10-13T02:21:55.046Z,25.30
2022-10-13T02:22:55.019Z,24.40
2022-10-13T02:23:55.006Z,25.20
2022-10-13T02:24:55.008Z,25.80
2022-10-13T02:25:54.989Z,27.60
2022-10-13T02:26:54.999Z,29.80
2022-10-13T02:27:54.961Z,28.10
2022-10-13T02:28:54.960Z,30.00
2022-10-13T02:29:54.939Z,31.60
2022-10-13T02:30:54.942Z,29.80
2022-10-13T02:31:54.978Z,30.10
2022-10-13T02:32:54.910Z,29.00
2022-10-13T02:33:54.901Z,31.40
2022-10-13T02:34:54.892Z,33.00
2022-10-13T02:35:54.880Z,29.60
2022-10-13T02:36:54.892Z,27.30
2022-10-13T02:37:54.872Z,26.80
2022-10-13T02:38:54.862Z,26.30
2022-10-13T02:39:54.862Z,25.70
2022-10-13T02:40:54.860Z,25.90
2022-10-13T02:41:54.843Z,25.90
2022-10-13T02:42:54.812Z,25.10
2022-10-13T02:43:54.801Z,24.00
2022-10-13T02:44:54.794Z,24.20
2022-10-13T02:45:54.774Z,26.20
2022-10-13T02:46:54.785Z,29.40
2022-10-13T02:47:54.751Z,27.70
2022-10-13T02:48:54.764Z,25.50
2022-10-13T02:49:54.733Z,26.80
2022-10-13T02:50:54.726Z,27.30
2022-10-13T02:51:54.725Z,26.40
2022-10-13T02:52:54.703Z,26.10
2022-10-13T02:53:54.711Z,25.70
2022-10-13T02:54:54.683Z,27.00
2022-10-13T02:55:54.667Z,27.90
2022-10-13T02:56:54.691Z,28.50
2022-10-13T02:57:54.655Z,26.60
2022-10-13T02:58:54.659Z,27.90
2022-10-13T02:59:54.630Z,33.10
2022-10-13T03:00:54.714Z,34.50
2022-10-13T03:01:54.618Z,32.10
2022-10-13T03:02:54.597Z,32.40
2022-10-13T03:03:54.581Z,35.50
2022-10-13T03:04:54.584Z,33.00
2022-10-13T03:05:54.563Z,32.00
2022-10-13T03:06:54.587Z,31.20
2022-10-13T03:07:54.539Z,33.30
2022-10-13T03:08:54.531Z,36.40
2022-10-13T03:09:54.520Z,33.80
2022-10-13T03:10:54.512Z,34.20
2022-10-13T03:11:54.511Z,35.70
2022-10-13T03:12:54.492Z,36.80
2022-10-13T03:13:54.472Z,38.10
2022-10-13T03:14:54.463Z,36.80
2022-10-13T03:15:54.733Z,33.80
2022-10-13T03:16:54.475Z,32.10
2022-10-13T03:17:54.443Z,30.90
2022-10-13T03:18:54.432Z,31.30
2022-10-13T03:19:54.414Z,30.20
2022-10-13T03:20:54.405Z,29.00
2022-10-13T03:21:54.415Z,28.70
2022-10-13T03:22:54.385Z,29.60
2022-10-13T03:23:54.364Z,30.20
2022-10-13T03:24:54.363Z,29.30
2022-10-13T03:25:54.354Z,33.10
2022-10-13T03:26:54.357Z,37.30
2022-10-13T03:27:54.327Z,31.60
2022-10-13T03:28:54.318Z,31.60
2022-10-13T03:29:54.306Z,33.80
2022-10-13T03:30:54.298Z,32.70
2022-10-13T03:31:54.297Z,31.10
2022-10-13T03:32:54.277Z,30.10
2022-10-13T03:33:54.260Z,30.30
2022-10-13T03:34:54.276Z,30.90
2022-10-13T03:35:54.239Z,30.90
2022-10-13T03:36:54.250Z,32.00
2022-10-13T03:37:54.221Z,32.60
2022-10-13T03:38:54.211Z,33.20
2022-10-13T03:39:54.199Z,36.70
2022-10-13T03:40:54.199Z,35.40
2022-10-13T03:41:54.200Z,34.30
2022-10-13T03:42:54.170Z,34.40
2022-10-13T03:43:54.164Z,38.30
2022-10-13T03:44:56.518Z,39.60
2022-10-13T03:45:54.133Z,41.40
2022-10-13T03:46:54.143Z,39.40
2022-10-13T03:47:54.123Z,36.90
2022-10-13T03:48:54.115Z,37.60
2022-10-13T03:49:54.098Z,36.50
2022-10-13T03:50:54.087Z,34.80
2022-10-13T03:51:54.085Z,35.70
2022-10-13T03:52:54.064Z,35.70
2022-10-13T03:53:54.054Z,33.00
2022-10-13T03:54:54.043Z,34.20
2022-10-13T03:55:54.026Z,35.20
2022-10-13T03:56:54.037Z,33.40
2022-10-13T03:57:54.005Z,32.20
2022-10-13T03:58:54.003Z,36.50
2022-10-13T03:59:53.987Z,38.70
2022-10-13T04:00:53.983Z,40.30
2022-10-13T04:01:54.014Z,41.60
2022-10-13T04:02:53.965Z,41.20
2022-10-13T04:03:53.947Z,42.00
2022-10-13T04:04:53.937Z,43.30
2022-10-13T04:05:53.925Z,44.20
2022-10-13T04:06:53.948Z,41.90
2022-10-13T04:07:53.910Z,42.30
2022-10-13T04:08:53.898Z,46.10
2022-10-13T04:09:53.879Z,44.70
2022-10-13T04:10:53.869Z,43.10
2022-10-13T04:11:53.878Z,42.80
2022-10-13T04:12:53.860Z,40.00
2022-10-13T04:13:53.838Z,40.50
2022-10-13T04:14:53.831Z,39.70
2022-10-13T04:15:53.811Z,42.30
2022-10-13T04:16:53.831Z,41.40
2022-10-13T04:17:53.791Z,41.30
2022-10-13T04:18:53.791Z,42.70
2022-10-13T04:19:53.782Z,49.50
2022-10-13T04:20:53.782Z,49.30
2022-10-13T04:21:53.771Z,57.10
2022-10-13T04:22:53.743Z,56.40
2022-10-13T04:23:53.733Z,56.00
2022-10-13T04:24:53.764Z,58.10
2022-10-13T04:25:53.714Z,57.70
2022-10-13T04:26:53.722Z,60.60
2022-10-13T04:27:53.684Z,63.10
2022-10-13T04:28:53.734Z,60.50
2022-10-13T04:29:53.675Z,64.00
2022-10-13T04:30:53.669Z,65.70
2022-10-13T04:31:53.666Z,64.10
2022-10-13T04:32:53.644Z,65.30
2022-10-13T04:33:53.625Z,61.30
2022-10-13T04:34:53.625Z,60.80
2022-10-13T04:35:53.615Z,63.00
2022-10-13T04:36:53.616Z,62.90
2022-10-13T04:37:53.587Z,62.80
2022-10-13T04:38:53.595Z,59.90
2022-10-13T04:39:53.558Z,64.90
2022-10-13T04:40:53.559Z,63.60
2022-10-13T04:41:53.570Z,61.20
2022-10-13T04:42:53.538Z,60.60
2022-10-13T04:43:53.529Z,58.10
2022-10-13T04:44:53.516Z,58.00
2022-10-13T04:45:53.500Z,57.30
2022-10-13T04:46:53.509Z,56.60
2022-10-13T04:47:53.489Z,55.60
2022-10-13T04:48:53.471Z,55.60
2022-10-13T04:49:53.459Z,55.40
2022-10-13T04:50:53.451Z,52.50
2022-10-13T04:51:53.480Z,51.80
2022-10-13T04:52:53.432Z,53.30
2022-10-13T04:53:53.422Z,52.40
2022-10-13T04:54:53.411Z,55.20
2022-10-13T04:55:53.403Z,50.70
2022-10-13T04:56:53.410Z,51.00
2022-10-13T04:57:53.409Z,54.10
2022-10-13T04:58:53.377Z,54.10
2022-10-13T04:59:53.356Z,53.20
2022-10-13T05:00:53.372Z,54.40
2022-10-13T05:01:53.366Z,56.30
2022-10-13T05:02:53.331Z,57.20
2022-10-13T05:03:53.313Z,52.50
2022-10-13T05:04:53.319Z,53.30
2022-10-13T05:05:53.285Z,52.20
2022-10-13T05:07:16.629Z,54.80
2022-10-13T05:07:54.276Z,53.50
2022-10-13T05:08:53.261Z,53.20
2022-10-13T05:09:53.247Z,52.80
2022-10-13T05:10:53.245Z,52.70
2022-10-13T05:11:53.239Z,51.80
2022-10-13T05:12:53.218Z,52.80
2022-10-13T05:13:53.205Z,51.10
2022-10-13T05:14:53.198Z,50.00
2022-10-13T05:15:53.192Z,50.10
2022-10-13T05:16:53.201Z,52.30
2022-10-13T05:17:53.160Z,51.90
2022-10-13T05:18:53.160Z,50.90
2022-10-13T05:19:53.149Z,51.80
2022-10-13T05:20:53.130Z,52.90
2022-10-13T05:21:53.091Z,51.70
2022-10-13T05:22:53.060Z,53.10
2022-10-13T05:23:53.101Z,52.00
2022-10-13T05:24:53.097Z,49.60
2022-10-13T05:25:53.080Z,55.00
2022-10-13T05:26:53.101Z,52.40
2022-10-13T05:27:53.028Z,55.10
2022-10-13T05:28:53.050Z,55.60
2022-10-13T05:29:53.032Z,55.80
2022-10-13T05:30:52.990Z,54.00
2022-10-13T05:31:52.973Z,53.40
2022-10-13T05:32:53.951Z,52.70
2022-10-13T05:33:52.962Z,54.70
2022-10-13T05:34:52.946Z,54.30
2022-10-13T05:35:53.075Z,51.00
2022-10-13T05:36:52.934Z,52.00
2022-10-13T05:37:52.904Z,52.70
2022-10-13T05:38:52.895Z,52.00
2022-10-13T05:39:52.875Z,52.60
2022-10-13T05:40:52.875Z,50.80
2022-10-13T05:41:52.876Z,51.30
2022-10-13T05:42:52.858Z,55.80
2022-10-13T05:43:52.839Z,52.70
2022-10-13T05:44:52.829Z,56.60
2022-10-13T05:45:52.815Z,53.20
2022-10-13T05:46:52.825Z,56.50
2022-10-13T05:47:52.798Z,54.90
2022-10-13T05:48:52.788Z,55.30
2022-10-13T05:49:52.769Z,55.40
2022-10-13T05:50:52.768Z,54.20
2022-10-13T05:51:52.770Z,56.20
2022-10-13T05:52:52.740Z,56.60
2022-10-13T05:53:57.530Z,57.80
2022-10-13T05:54:53.720Z,59.40
2022-10-13T05:55:52.711Z,58.10
2022-10-13T05:56:52.720Z,59.20
2022-10-13T05:57:52.691Z,59.30
2022-10-13T05:58:52.682Z,63.20
2022-10-13T05:59:52.672Z,60.60
2022-10-13T06:00:52.673Z,57.90
2022-10-13T06:01:52.683Z,61.90
2022-10-13T06:02:52.660Z,61.50
2022-10-13T06:03:52.622Z,61.00
2022-10-13T06:04:52.613Z,62.60
2022-10-13T06:05:53.103Z,61.40
2022-10-13T06:06:52.593Z,61.30
2022-10-13T06:07:52.594Z,61.00
2022-10-13T06:08:52.574Z,62.20
2022-10-13T06:09:52.557Z,61.70
2022-10-13T06:10:52.557Z,61.60
2022-10-13T06:11:52.545Z,61.50
2022-10-13T06:12:52.545Z,60.10
2022-10-13T06:13:52.527Z,58.90
2022-10-13T06:14:52.523Z,60.10
2022-10-13T06:15:52.506Z,61.60
2022-10-13T06:16:52.485Z,57.10
2022-10-13T06:17:52.504Z,58.10
2022-10-13T06:18:52.465Z,57.70
2022-10-13T06:19:52.472Z,59.20
2022-10-13T06:20:52.447Z,61.70
2022-10-13T06:21:52.443Z,60.90
2022-10-13T06:22:52.458Z,63.50
2022-10-13T06:23:52.420Z,65.40
2022-10-13T06:24:52.409Z,68.90
2022-10-13T06:25:52.400Z,68.70
2022-10-13T06:26:52.386Z,69.00
2022-10-13T06:27:52.392Z,69.30
2022-10-13T06:28:56.930Z,68.30
2022-10-13T06:29:53.350Z,70.70
2022-10-13T06:30:52.340Z,70.00
2022-10-13T06:31:52.338Z,70.30
2022-10-13T06:32:52.341Z,75.00
2022-10-13T06:33:52.311Z,76.20
2022-10-13T06:34:52.298Z,74.60
2022-10-13T06:35:52.294Z,73.30
2022-10-13T06:36:52.282Z,73.30
2022-10-13T06:37:52.292Z,76.80
2022-10-13T06:38:52.254Z,77.90
2022-10-13T06:39:52.250Z,80.20
2022-10-13T06:40:52.234Z,82.90
2022-10-13T06:41:52.262Z,81.90
2022-10-13T06:42:52.233Z,80.50
2022-10-13T06:43:52.206Z,80.70
2022-10-13T06:44:52.194Z,78.40
2022-10-13T06:45:52.185Z,77.70
2022-10-13T06:46:52.166Z,74.90
2022-10-13T06:47:52.189Z,74.00
2022-10-13T06:48:52.147Z,77.40
2022-10-13T06:49:52.143Z,77.50
2022-10-13T06:50:52.125Z,76.40
2022-10-13T06:51:52.117Z,76.60
2022-10-13T06:52:52.136Z,76.40
2022-10-13T06:53:52.105Z,73.10
2022-10-13T06:54:52.087Z,73.50
2022-10-13T06:55:52.664Z,74.70
2022-10-13T06:56:52.065Z,76.60
2022-10-13T06:57:52.077Z,76.10
2022-10-13T06:58:52.042Z,78.40
2022-10-13T06:59:52.041Z,77.50
2022-10-13T07:00:52.070Z,78.80
2022-10-13T07:01:52.021Z,76.40
2022-10-13T07:02:52.020Z,78.60
2022-10-13T07:03:51.999Z,75.30
2022-10-13T07:04:51.980Z,75.80
2022-10-13T07:05:51.974Z,79.80
2022-10-13T07:06:51.959Z,76.10
2022-10-13T07:07:51.971Z,74.60
2022-10-13T07:08:51.952Z,74.10
2022-10-13T07:09:51.938Z,73.10
2022-10-13T07:10:51.914Z,73.70
2022-10-13T07:11:51.910Z,75.10
2022-10-13T07:12:51.911Z,73.00
2022-10-13T07:13:51.950Z,70.20
2022-10-13T07:14:51.883Z,69.20
2022-10-13T07:15:51.863Z,68.30
2022-10-13T07:16:51.854Z,69.60
2022-10-13T07:17:51.866Z,66.90
2022-10-13T07:18:51.834Z,66.60
2022-10-13T07:19:55.678Z,65.70
2022-10-13T07:20:52.817Z,65.00
2022-10-13T07:21:51.806Z,67.70
2022-10-13T07:22:51.806Z,68.40
2022-10-13T07:23:51.795Z,66.00
2022-10-13T07:24:51.766Z,65.90
2022-10-13T07:25:51.764Z,63.80
2022-10-13T07:26:51.756Z,65.50
2022-10-13T07:27:51.766Z,66.20
2022-10-13T07:28:51.781Z,64.70
2022-10-13T07:29:51.718Z,64.80
2022-10-13T07:30:51.709Z,64.60
2022-10-13T07:31:51.699Z,64.30
2022-10-13T07:32:51.708Z,64.10
2022-10-13T07:33:51.686Z,66.40
2022-10-13T07:34:51.667Z,66.70
2022-10-13T07:35:51.660Z,66.20
2022-10-13T07:36:51.640Z,66.70
2022-10-13T07:37:51.674Z,63.80
2022-10-13T07:38:51.620Z,66.40
2022-10-13T07:39:51.622Z,64.10
2022-10-13T07:40:51.600Z,65.00
2022-10-13T07:41:51.591Z,64.10
2022-10-13T07:42:51.611Z,63.30
2022-10-13T07:43:51.572Z,67.00
2022-10-13T07:44:51.561Z,65.00
2022-10-13T07:45:51.552Z,68.20
2022-10-13T07:46:51.533Z,67.40
2022-10-13T07:47:51.561Z,66.90
2022-10-13T07:48:51.522Z,67.90
2022-10-13T07:49:51.516Z,66.70
2022-10-13T07:50:51.499Z,66.10
2022-10-13T07:51:51.485Z,63.40
2022-10-13T07:52:51.494Z,64.50
2022-10-13T07:53:51.493Z,65.00
2022-10-13T07:54:51.462Z,64.00
2022-10-13T07:55:51.446Z,61.20
2022-10-13T07:56:51.433Z,63.10
2022-10-13T07:57:51.437Z,62.50
2022-10-13T07:58:51.407Z,59.40
2022-10-13T07:59:51.405Z,61.20
2022-10-13T08:00:51.397Z,59.00
2022-10-13T08:01:51.435Z,58.30
2022-10-13T08:02:51.400Z,57.80
2022-10-13T08:03:51.376Z,59.70
2022-10-13T08:04:51.349Z,59.60
2022-10-13T08:05:51.348Z,59.10
2022-10-13T08:06:51.339Z,58.10
2022-10-13T08:07:54.693Z,57.20
2022-10-13T08:08:52.305Z,56.90
2022-10-13T08:09:51.328Z,55.60
2022-10-13T08:10:51.341Z,55.30
2022-10-13T08:11:51.299Z,55.20
2022-10-13T08:12:51.262Z,50.90
2022-10-13T08:13:51.260Z,51.50
2022-10-13T08:14:51.249Z,51.10
2022-10-13T08:15:51.265Z,51.40
2022-10-13T08:16:53.037Z,51.70
2022-10-13T08:17:51.214Z,51.30
2022-10-13T08:18:51.211Z,52.80
2022-10-13T08:19:51.192Z,50.60
2022-10-13T08:20:51.182Z,50.00
2022-10-13T08:21:59.839Z,47.20
2022-10-13T08:22:52.154Z,50.20
2022-10-13T08:23:51.154Z,49.90
2022-10-13T08:24:51.141Z,47.00
2022-10-13T08:25:51.135Z,47.00
2022-10-13T08:26:51.131Z,48.60
2022-10-13T08:27:53.084Z,47.00
2022-10-13T08:29:09.655Z,47.80
2022-10-13T08:29:52.096Z,45.70
2022-10-13T08:30:51.163Z,43.80
2022-10-13T08:31:51.232Z,44.00
2022-10-13T08:32:51.054Z,46.90
2022-10-13T08:33:51.047Z,45.00
2022-10-13T08:34:51.028Z,45.80
2022-10-13T08:35:51.019Z,44.70
2022-10-13T08:36:51.047Z,44.90
2022-10-13T08:37:51.014Z,44.50
2022-10-13T08:38:50.988Z,43.90
2022-10-13T08:39:50.998Z,44.90
2022-10-13T08:40:50.979Z,44.60
2022-10-13T08:41:50.988Z,43.80
2022-10-13T08:42:50.948Z,44.70
2022-10-13T08:44:33.707Z,45.30
2022-10-13T08:45:51.930Z,46.00
2022-10-13T08:46:50.920Z,45.60
2022-10-13T08:47:50.905Z,46.20
2022-10-13T08:48:50.882Z,47.60
2022-10-13T08:49:50.881Z,49.50
2022-10-13T08:50:50.864Z,49.70
2022-10-13T08:51:50.872Z,48.70
2022-10-13T08:52:50.855Z,47.70
2022-10-13T08:53:50.833Z,47.60
2022-10-13T08:54:50.820Z,47.80
2022-10-13T08:55:50.814Z,46.80
2022-10-13T08:56:50.836Z,43.90
2022-10-13T08:57:50.814Z,44.20
2022-10-13T08:58:50.778Z,42.10
2022-10-13T08:59:50.766Z,39.00
2022-10-13T09:00:50.754Z,39.90
2022-10-13T09:01:50.789Z,38.60
2022-10-13T09:02:50.746Z,39.70
2022-10-13T09:03:50.725Z,39.50
2022-10-13T09:04:50.726Z,40.20
2022-10-13T09:05:50.707Z,42.50
2022-10-13T09:06:50.695Z,44.10
2022-10-13T09:07:50.746Z,44.00
2022-10-13T09:08:50.688Z,43.10
2022-10-13T09:09:50.665Z,42.40
2022-10-13T09:10:50.651Z,42.30
2022-10-13T09:11:50.646Z,42.20
2022-10-13T09:12:50.628Z,43.80
2022-10-13T09:13:50.650Z,42.00
2022-10-13T09:14:50.648Z,42.90
2022-10-13T09:15:50.601Z,42.60
2022-10-13T09:16:50.580Z,44.00
2022-10-13T09:17:50.580Z,44.30
2022-10-13T09:18:50.571Z,47.30
2022-10-13T09:19:50.663Z,45.40
2022-10-13T09:20:50.545Z,45.60
2022-10-13T09:21:50.543Z,44.10
2022-10-13T09:22:50.540Z,45.00
2022-10-13T09:23:50.523Z,43.60
2022-10-13T09:24:50.520Z,43.50
2022-10-13T09:25:50.497Z,43.20
2022-10-13T09:26:50.484Z,44.10
2022-10-13T09:27:50.477Z,44.40
2022-10-13T09:28:50.519Z,45.40
2022-10-13T09:29:50.481Z,46.40
2022-10-13T09:30:50.444Z,47.30
2022-10-13T09:31:50.435Z,46.00
2022-10-13T09:32:50.415Z,46.70
2022-10-13T09:33:50.416Z,44.50
2022-10-13T09:34:50.415Z,44.00
2022-10-13T09:35:50.398Z,41.70
2022-10-13T09:36:50.380Z,44.00
2022-10-13T09:37:50.377Z,42.40
2022-10-13T09:38:50.357Z,42.90
2022-10-13T09:39:50.379Z,41.90
2022-10-13T09:40:50.338Z,39.30
2022-10-13T09:41:50.360Z,39.70
2022-10-13T09:42:50.316Z,39.70
2022-10-13T09:43:50.309Z,40.60
2022-10-13T09:44:50.319Z,40.10
2022-10-13T09:45:50.289Z,40.20
2022-10-13T09:46:50.278Z,39.00
2022-10-13T09:47:50.270Z,38.40
2022-10-13T09:48:50.249Z,38.40
2022-10-13T09:49:50.261Z,38.90
2022-10-13T09:50:50.230Z,38.00
2022-10-13T09:51:50.221Z,38.80
2022-10-13T09:52:50.210Z,37.50
2022-10-13T09:53:50.209Z,38.50
2022-10-13T09:54:50.342Z,39.00
2022-10-13T09:55:50.183Z,37.20
2022-10-13T09:56:50.169Z,37.90
2022-10-13T09:57:50.161Z,37.80
2022-10-13T09:58:50.146Z,39.90
2022-10-13T09:59:50.200Z,39.50
2022-10-13T10:00:50.132Z,39.70
2022-10-13T10:01:50.123Z,39.90
2022-10-13T10:02:50.104Z,40.00
2022-10-13T10:03:50.162Z,39.20
2022-10-13T10:04:50.085Z,41.00
2022-10-13T10:05:50.076Z,39.30
2022-10-13T10:06:50.055Z,39.00
2022-10-13T10:07:50.064Z,38.50
2022-10-13T10:09:02.274Z,38.90
2022-10-13T10:09:51.027Z,38.60
2022-10-13T10:10:50.028Z,40.40
2022-10-13T10:11:50.009Z,38.70
2022-10-13T10:12:49.997Z,39.70
2022-10-13T10:13:50.009Z,39.10
2022-10-13T10:14:49.983Z,37.90
2022-10-13T10:15:49.980Z,37.60
2022-10-13T10:16:49.958Z,37.80
2022-10-13T10:17:49.960Z,35.80
2022-10-13T10:18:52.797Z,34.50
2022-10-13T10:19:50.930Z,34.50
2022-10-13T10:20:49.911Z,36.90
2022-10-13T10:21:49.901Z,34.90
2022-10-13T10:22:49.891Z,35.40
2022-10-13T10:23:49.902Z,37.20
2022-10-13T10:24:49.862Z,36.00
2022-10-13T10:25:49.862Z,38.70
2022-10-13T10:26:49.862Z,37.30
2022-10-13T10:27:49.841Z,37.30
2022-10-13T10:28:49.966Z,38.00
2022-10-13T10:29:49.812Z,35.50
2022-10-13T10:30:49.816Z,34.50
2022-10-13T10:31:49.792Z,36.10
2022-10-13T10:32:49.794Z,34.80
2022-10-13T10:33:49.786Z,36.00
2022-10-13T10:34:49.765Z,36.20
2022-10-13T10:35:49.756Z,35.20
2022-10-13T10:36:49.745Z,34.90
2022-10-13T10:37:49.726Z,38.30
2022-10-13T10:38:49.737Z,37.00
2022-10-13T10:39:49.710Z,35.80
2022-10-13T10:40:49.697Z,38.70
2022-10-13T10:41:49.680Z,36.60
2022-10-13T10:42:52.104Z,35.80
2022-10-13T10:43:49.688Z,34.40
2022-10-13T10:44:49.663Z,35.30
2022-10-13T10:45:49.640Z,33.50
2022-10-13T10:46:49.639Z,34.80
2022-10-13T10:47:49.619Z,35.00
2022-10-13T10:48:49.617Z,34.60
2022-10-13T10:49:49.612Z,33.80
2022-10-13T10:50:49.591Z,33.60
2022-10-13T10:51:49.581Z,32.80
2022-10-13T10:52:49.571Z,32.10
2022-10-13T10:53:49.551Z,32.50
2022-10-13T10:54:49.694Z,34.30
2022-10-13T10:55:49.532Z,33.90
2022-10-13T10:56:49.524Z,31.60
2022-10-13T10:57:49.510Z,31.00
2022-10-13T10:58:49.519Z,31.30
2022-10-13T10:59:56.234Z,31.50
2022-10-13T11:00:49.484Z,32.40
2022-10-13T11:01:49.497Z,35.40
2022-10-13T11:02:49.463Z,32.00
2022-10-13T11:03:49.444Z,32.30
2022-10-13T11:04:49.454Z,30.50
2022-10-13T11:05:49.427Z,31.20
2022-10-13T11:06:49.417Z,30.70
2022-10-13T11:07:49.406Z,30.00
2022-10-13T11:08:49.405Z,32.10
2022-10-13T11:09:49.403Z,31.10
2022-10-13T11:10:49.377Z,31.20
2022-10-13T11:11:49.358Z,31.50
2022-10-13T11:12:49.375Z,31.50
2022-10-13T11:13:49.348Z,29.10
2022-10-13T11:14:49.357Z,30.30
2022-10-13T11:15:49.318Z,28.80
2022-10-13T11:16:49.317Z,27.00
2022-10-13T11:17:49.300Z,26.90
2022-10-13T11:18:49.290Z,26.40
2022-10-13T11:19:49.298Z,25.40
2022-10-13T11:20:49.271Z,25.30
2022-10-13T11:21:49.262Z,25.00
2022-10-13T11:22:49.251Z,25.60
2022-10-13T11:23:49.232Z,24.20
2022-10-13T11:24:49.244Z,24.30
2022-10-13T11:25:49.213Z,23.00
2022-10-13T11:26:49.213Z,23.10
2022-10-13T11:27:49.195Z,24.10
2022-10-13T11:28:49.245Z,24.10
2022-10-13T11:29:49.217Z,23.80
2022-10-13T11:30:49.179Z,23.10
2022-10-13T11:31:49.154Z,22.80
2022-10-13T11:32:49.144Z,22.30
2022-10-13T11:33:49.126Z,22.00
2022-10-13T11:34:49.137Z,23.30
2022-10-13T11:35:49.108Z,23.30
2022-10-13T11:36:49.107Z,23.60
2022-10-13T11:38:05.716Z,24.20
2022-10-13T11:38:50.077Z,23.90
2022-10-13T11:39:49.079Z,24.20
2022-10-13T11:40:49.060Z,23.70
2022-10-13T11:41:49.048Z,24.40
2022-10-13T11:42:49.048Z,23.50
2022-10-13T11:43:49.019Z,22.50
2022-10-13T11:44:49.113Z,22.00
2022-10-13T11:45:49.008Z,22.50
2022-10-13T11:46:48.999Z,21.20
2022-10-13T11:47:48.984Z,21.20
2022-10-13T11:48:48.979Z,22.10
2022-10-13T11:49:48.990Z,23.30
2022-10-13T11:50:48.953Z,21.40
2022-10-13T11:51:48.949Z,21.80
2022-10-13T11:52:48.933Z,21.20
2022-10-13T11:53:48.914Z,20.90
2022-10-13T11:54:48.933Z,21.80
2022-10-13T11:55:48.904Z,20.60
2022-10-13T11:56:49.105Z,20.80
2022-10-13T11:57:48.884Z,20.80
2022-10-13T11:58:48.877Z,20.00
2022-10-13T11:59:48.877Z,19.20
2022-10-13T12:00:48.870Z,19.70
2022-10-13T12:01:48.838Z,19.70
2022-10-13T12:02:48.847Z,20.30
2022-10-13T12:03:48.818Z,20.30
2022-10-13T12:04:48.829Z,19.90
2022-10-13T12:05:48.791Z,17.90
2022-10-13T12:06:48.780Z,18.00
2022-10-13T12:07:48.777Z,19.70
2022-10-13T12:08:48.767Z,19.60
2022-10-13T12:09:48.777Z,19.20
2022-10-13T12:10:48.745Z,18.40
2022-10-13T12:11:48.734Z,17.80
2022-10-13T12:12:48.741Z,18.80
2022-10-13T12:13:48.713Z,19.60
2022-10-13T12:14:48.721Z,18.70
2022-10-13T12:15:48.685Z,19.70
2022-10-13T12:16:48.709Z,18.80
2022-10-13T12:17:48.674Z,20.60
2022-10-13T12:18:48.664Z,21.20
2022-10-13T12:19:48.664Z,20.30
2022-10-13T12:20:48.636Z,19.70
2022-10-13T12:21:48.626Z,18.90
2022-10-13T12:22:48.626Z,20.20
2022-10-13T12:23:48.604Z,20.90
2022-10-13T12:24:48.618Z,20.00
2022-10-13T12:25:48.589Z,18.30
2022-10-13T12:26:48.579Z,18.70
2022-10-13T12:27:48.566Z,19.00
2022-10-13T12:28:48.583Z,19.40
2022-10-13T12:29:48.569Z,20.40
2022-10-13T12:30:48.539Z,19.20
2022-10-13T12:31:48.520Z,19.10
2022-10-13T12:32:48.609Z,18.00
2022-10-13T12:33:48.499Z,18.10
2022-10-13T12:34:48.510Z,18.30
2022-10-13T12:35:48.473Z,17.80
2022-10-13T12:36:48.526Z,17.50
2022-10-13T12:37:48.454Z,17.80
2022-10-13T12:38:48.452Z,16.90
2022-10-13T12:39:48.463Z,17.80
2022-10-13T12:40:48.431Z,16.70
2022-10-13T12:41:48.416Z,16.10
2022-10-13T12:42:48.520Z,17.40
2022-10-13T12:43:48.394Z,16.90
2022-10-13T12:44:48.405Z,16.20
2022-10-13T12:45:48.373Z,16.90
2022-10-13T12:46:48.366Z,16.70
2022-10-13T12:47:48.347Z,16.30
2022-10-13T12:48:48.348Z,15.90
2022-10-13T12:49:48.346Z,15.80
2022-10-13T12:50:48.325Z,16.90
2022-10-13T12:51:48.311Z,16.30
2022-10-13T12:52:48.332Z,16.80
2022-10-13T12:53:48.303Z,17.30